Time;durP1;ratioP1;P1;durP2;ratioP2;P2;SDS_P1;SDS_P2;PMS_P1;PMS_P2;Temp;Humidity;BMP_temperature;BMP_pressure;BME280_temperature;BME280_humidity;BME280_pressure;Samples;Min_cycle;Max_cycle;Signal;HPM_P1;HPM_P2
2023/05/29 00:01:00;;;;;;;5.40;3.30;;;;;;;;;;5051971;28;20048;-67
2023/05/29 00:03:26;;;;;;;4.50;3.17;;;;;;;;;;5052248;28;20433;-67
2023/05/29 00:05:54;;;;;;;4.25;3.05;;;;;;;;;;5051617;28;20045;-66
2023/05/29 00:08:21;;;;;;;5.10;3.08;;;;;;;;;;5052386;28;20044;-67
2023/05/29 00:10:47;;;;;;;4.60;3.05;;;;;;;;;;5051461;28;20048;-67
2023/05/29 00:13:14;;;;;;;4.60;3.08;;;;;;;;;;5052183;28;20136;-67
2023/05/29 00:15:40;;;;;;;7.80;3.22;;;;;;;;;;5051526;28;20045;-67
2023/05/29 00:18:07;;;;;;;4.72;2.90;;;;;;;;;;5052008;28;20132;-66
2023/05/29 00:20:34;;;;;;;4.82;3.08;;;;;;;;;;5051351;28;20049;-66
2023/05/29 00:23:04;;;;;;;4.65;2.80;;;;;;;;;;5051661;28;20044;-66
2023/05/29 00:25:30;;;;;;;5.47;3.55;;;;;;;;;;5051923;28;20417;-66
2023/05/29 00:27:57;;;;;;;4.57;3.15;;;;;;;;;;5051614;28;20049;-66
2023/05/29 00:30:24;;;;;;;6.80;3.75;;;;;;;;;;5051671;28;20048;-66
2023/05/29 00:32:51;;;;;;;5.57;3.20;;;;;;;;;;5051417;28;20096;-65
2023/05/29 00:35:18;;;;;;;5.68;3.30;;;;;;;;;;5051646;28;20049;-66
2023/05/29 00:37:45;;;;;;;3.83;2.65;;;;;;;;;;5051258;28;20051;-66
2023/05/29 00:40:13;;;;;;;3.78;2.78;;;;;;;;;;5051633;28;20056;-66
2023/05/29 00:42:40;;;;;;;3.95;2.70;;;;;;;;;;5051176;28;20422;-66
2023/05/29 00:45:07;;;;;;;4.63;3.03;;;;;;;;;;5051841;28;20057;-66
2023/05/29 00:47:34;;;;;;;5.43;3.08;;;;;;;;;;5050774;28;20167;-65
2023/05/29 00:50:02;;;;;;;5.75;2.97;;;;;;;;;;5051303;28;20045;-66
2023/05/29 00:52:29;;;;;;;6.80;2.97;;;;;;;;;;5051419;28;20131;-66
2023/05/29 00:54:57;;;;;;;3.90;2.63;;;;;;;;;;5051357;28;20052;-66
2023/05/29 00:57:25;;;;;;;4.93;3.03;;;;;;;;;;5051404;28;20049;-67
2023/05/29 00:59:52;;;;;;;5.75;2.88;;;;;;;;;;5050583;28;20292;-66
2023/05/29 01:02:22;;;;;;;3.80;2.67;;;;;;;;;;5051161;28;20052;-66
2023/05/29 01:04:49;;;;;;;6.07;3.10;;;;;;;;;;5050575;28;20053;-66
2023/05/29 01:07:16;;;;;;;6.70;2.88;;;;;;;;;;5051016;28;20049;-67
2023/05/29 01:09:43;;;;;;;4.97;2.88;;;;;;;;;;5050295;28;20461;-66
2023/05/29 01:12:20;;;;;;;7.32;3.38;;;;;;;;;;5051322;28;20106;-66
2023/05/29 01:14:58;;;;;;;5.72;3.65;;;;;;;;;;5050227;28;20482;-66
2023/05/29 01:17:33;;;;;;;3.15;2.58;;;;;;;;;;5050877;28;20103;-65
2023/05/29 01:20:23;;;;;;;5.22;3.40;;;;;;;;;;5050085;28;20065;-66
2023/05/29 01:23:09;;;;;;;5.95;3.13;;;;;;;;;;5050742;28;20045;-66
2023/05/29 01:25:51;;;;;;;4.95;2.85;;;;;;;;;;5050400;28;20049;-66
2023/05/29 01:28:22;;;;;;;5.85;3.10;;;;;;;;;;5050885;28;20052;-66
2023/05/29 01:30:50;;;;;;;5.68;2.97;;;;;;;;;;5049921;28;20044;-68
2023/05/29 01:33:17;;;;;;;4.32;2.90;;;;;;;;;;5050565;28;20045;-65
2023/05/29 01:35:43;;;;;;;4.80;3.10;;;;;;;;;;5049724;28;20048;-66
2023/05/29 01:38:10;;;;;;;7.57;3.22;;;;;;;;;;5050539;28;20049;-66
2023/05/29 01:40:37;;;;;;;5.10;2.78;;;;;;;;;;5049917;28;20052;-66
2023/05/29 01:43:04;;;;;;;4.95;3.17;;;;;;;;;;5050969;28;20056;-66
2023/05/29 01:45:32;;;;;;;4.50;3.17;;;;;;;;;;5050111;28;20055;-66
2023/05/29 01:47:59;;;;;;;4.25;2.97;;;;;;;;;;5050838;28;20045;-66
2023/05/29 01:50:26;;;;;;;6.03;3.35;;;;;;;;;;5049794;28;20045;-66
2023/05/29 01:52:53;;;;;;;5.70;3.40;;;;;;;;;;5050515;28;20049;-67
2023/05/29 01:55:20;;;;;;;3.80;2.95;;;;;;;;;;5050634;28;20052;-66
2023/05/29 01:57:47;;;;;;;4.18;2.80;;;;;;;;;;5050012;28;20547;-66
2023/05/29 02:00:16;;;;;;;4.38;3.05;;;;;;;;;;5050190;28;20556;-67
2023/05/29 02:02:44;;;;;;;5.32;2.95;;;;;;;;;;5049562;28;20106;-67
2023/05/29 02:05:11;;;;;;;5.72;3.20;;;;;;;;;;5050344;28;20056;-66
2023/05/29 02:07:38;;;;;;;5.63;3.15;;;;;;;;;;5050089;28;20049;-66
2023/05/29 02:10:05;;;;;;;5.57;3.00;;;;;;;;;;5049929;28;20053;-67
2023/05/29 02:12:31;;;;;;;4.10;3.03;;;;;;;;;;5049768;28;20059;-66
2023/05/29 02:14:58;;;;;;;7.15;3.67;;;;;;;;;;5049788;28;20045;-67
2023/05/29 02:17:25;;;;;;;6.47;3.10;;;;;;;;;;5049466;28;20045;-66
2023/05/29 02:19:53;;;;;;;4.53;2.85;;;;;;;;;;5049623;28;20056;-66
2023/05/29 02:22:19;;;;;;;5.65;3.08;;;;;;;;;;5049923;28;20048;-66
2023/05/29 02:24:46;;;;;;;5.95;3.42;;;;;;;;;;5050008;28;20098;-66
2023/05/29 02:27:12;;;;;;;5.75;3.22;;;;;;;;;;5054874;28;20414;-66
2023/05/29 02:29:39;;;;;;;6.45;3.47;;;;;;;;;;5056201;28;20406;-66
2023/05/29 02:32:06;;;;;;;4.55;3.30;;;;;;;;;;5056873;28;20080;-66
2023/05/29 02:34:33;;;;;;;5.47;3.33;;;;;;;;;;5056533;28;20049;-66
2023/05/29 02:37:00;;;;;;;4.97;3.10;;;;;;;;;;5056642;28;20045;-66
2023/05/29 02:39:27;;;;;;;3.78;2.92;;;;;;;;;;5056336;28;20483;-68
2023/05/29 02:41:54;;;;;;;7.03;3.72;;;;;;;;;;5056353;28;20487;-66
2023/05/29 02:44:21;;;;;;;4.72;2.75;;;;;;;;;;5056110;28;20552;-66
2023/05/29 02:46:48;;;;;;;4.88;2.88;;;;;;;;;;5056600;28;20045;-67
2023/05/29 02:49:14;;;;;;;4.72;3.20;;;;;;;;;;5056532;28;20051;-67
2023/05/29 02:51:41;;;;;;;6.22;3.20;;;;;;;;;;5056483;28;20041;-67
2023/05/29 02:54:09;;;;;;;5.20;3.40;;;;;;;;;;5056348;28;20052;-67
2023/05/29 02:56:35;;;;;;;6.30;3.47;;;;;;;;;;5056244;28;20238;-67
2023/05/29 02:59:02;;;;;;;6.78;3.78;;;;;;;;;;5056296;28;20470;-66
2023/05/29 03:01:28;;;;;;;4.32;3.10;;;;;;;;;;5056319;28;20152;-67
2023/05/29 03:03:56;;;;;;;5.72;3.17;;;;;;;;;;5056444;28;20418;-67
2023/05/29 03:06:22;;;;;;;5.07;2.95;;;;;;;;;;5056351;28;20045;-67
2023/05/29 03:08:51;;;;;;;7.07;3.22;;;;;;;;;;5056926;28;20048;-67
2023/05/29 03:11:19;;;;;;;4.40;3.28;;;;;;;;;;5068111;22;20083;-65
2023/05/29 03:13:46;;;;;;;4.63;3.40;;;;;;;;;;5056933;28;20103;-65
2023/05/29 03:16:13;;;;;;;5.13;3.00;;;;;;;;;;5055915;28;20136;-65
2023/05/29 03:18:41;;;;;;;4.63;3.00;;;;;;;;;;5056687;28;20045;-66
2023/05/29 03:21:07;;;;;;;9.07;3.53;;;;;;;;;;5055819;28;20136;-68
2023/05/29 03:23:34;;;;;;;7.18;3.40;;;;;;;;;;5056632;28;20041;-68
2023/05/29 03:26:01;;;;;;;5.47;2.88;;;;;;;;;;5055707;28;20071;-68
2023/05/29 03:28:29;;;;;;;5.45;3.00;;;;;;;;;;5056596;28;20053;-67
2023/05/29 03:30:55;;;;;;;6.55;3.80;;;;;;;;;;5055872;28;20113;-68
2023/05/29 03:33:22;;;;;;;6.93;3.47;;;;;;;;;;5056395;28;20049;-68
2023/05/29 03:35:49;;;;;;;7.00;3.53;;;;;;;;;;5055839;28;20063;-68
2023/05/29 03:38:15;;;;;;;6.53;3.38;;;;;;;;;;5053502;28;20139;-66
2023/05/29 03:40:42;;;;;;;5.35;3.15;;;;;;;;;;5051971;28;20068;-68
2023/05/29 03:43:08;;;;;;;3.85;2.80;;;;;;;;;;5053189;28;20513;-68
2023/05/29 03:45:36;;;;;;;5.07;3.40;;;;;;;;;;5053066;28;20068;-67
2023/05/29 03:48:03;;;;;;;7.55;4.18;;;;;;;;;;5052837;28;20395;-67
2023/05/29 03:50:29;;;;;;;4.22;3.17;;;;;;;;;;5052706;28;20055;-67
2023/05/29 03:52:56;;;;;;;4.50;3.30;;;;;;;;;;5052457;28;20083;-68
2023/05/29 03:55:22;;;;;;;4.68;3.03;;;;;;;;;;5052724;28;20071;-67
2023/05/29 03:57:49;;;;;;;4.47;3.10;;;;;;;;;;5052800;28;20481;-68
2023/05/29 04:00:16;;;;;;;4.30;3.10;;;;;;;;;;5052864;28;20337;-67
2023/05/29 04:02:44;;;;;;;6.72;4.05;;;;;;;;;;5052312;28;20049;-68
2023/05/29 04:05:12;;;;;;;7.25;3.72;;;;;;;;;;5052749;28;20073;-67
2023/05/29 04:07:39;;;;;;;5.25;3.30;;;;;;;;;;5051817;28;20057;-67
2023/05/29 04:10:07;;;;;;;6.28;3.35;;;;;;;;;;5052389;28;20052;-67
2023/05/29 04:12:34;;;;;;;5.65;3.83;;;;;;;;;;5052093;28;20065;-67
2023/05/29 04:15:01;;;;;;;6.55;3.25;;;;;;;;;;5052463;28;20049;-68
2023/05/29 04:17:27;;;;;;;6.22;3.80;;;;;;;;;;5052621;28;20041;-67
2023/05/29 04:19:55;;;;;;;6.20;3.63;;;;;;;;;;5051725;28;20053;-68
2023/05/29 04:22:22;;;;;;;4.07;3.13;;;;;;;;;;5052049;28;20052;-67
2023/05/29 04:24:48;;;;;;;7.00;3.50;;;;;;;;;;5051987;28;20045;-67
2023/05/29 04:27:15;;;;;;;7.50;5.00;;;;;;;;;;5052293;28;20068;-67
2023/05/29 04:29:42;;;;;;;5.07;3.65;;;;;;;;;;5051334;28;20060;-68
2023/05/29 04:32:11;;;;;;;5.68;3.35;;;;;;;;;;5051988;28;20049;-68
2023/05/29 04:34:38;;;;;;;5.68;3.55;;;;;;;;;;5051422;28;20322;-65
2023/05/29 04:37:06;;;;;;;6.35;3.47;;;;;;;;;;5052042;28;20052;-65
2023/05/29 04:39:34;;;;;;;7.80;3.67;;;;;;;;;;5051302;28;20045;-68
2023/05/29 04:42:00;;;;;;;7.32;3.80;;;;;;;;;;5052165;28;20053;-66
2023/05/29 04:44:28;;;;;;;5.90;3.63;;;;;;;;;;5051547;28;20048;-66
2023/05/29 04:46:56;;;;;;;7.38;4.13;;;;;;;;;;5052223;28;20131;-66
2023/05/29 04:49:23;;;;;;;7.38;4.45;;;;;;;;;;5050957;28;20048;-66
2023/05/29 04:51:52;;;;;;;6.32;3.65;;;;;;;;;;5051754;28;20505;-66
2023/05/29 04:54:20;;;;;;;4.95;3.65;;;;;;;;;;5051456;28;20098;-66
2023/05/29 04:56:47;;;;;;;6.97;3.80;;;;;;;;;;5051330;28;20494;-66
2023/05/29 04:59:14;;;;;;;6.88;3.35;;;;;;;;;;5051716;28;20045;-66
2023/05/29 05:01:43;;;;;;;6.28;3.22;;;;;;;;;;5051210;28;20106;-66
2023/05/29 05:04:09;;;;;;;5.97;3.42;;;;;;;;;;5052037;28;20092;-68
2023/05/29 05:06:37;;;;;;;5.35;3.10;;;;;;;;;;5051044;28;20052;-68
2023/05/29 05:09:04;;;;;;;8.80;3.70;;;;;;;;;;5051674;28;20135;-67
2023/05/29 05:11:32;;;;;;;8.10;3.53;;;;;;;;;;5050630;28;20053;-68
2023/05/29 05:13:59;;;;;;;6.60;3.30;;;;;;;;;;5051438;28;20048;-68
2023/05/29 05:16:25;;;;;;;6.90;3.70;;;;;;;;;;5050518;28;20414;-67
2023/05/29 05:18:52;;;;;;;4.03;3.20;;;;;;;;;;5051454;28;20092;-68
2023/05/29 05:21:18;;;;;;;7.68;3.70;;;;;;;;;;5050151;28;20045;-67
2023/05/29 05:23:46;;;;;;;7.60;3.75;;;;;;;;;;5051326;28;20116;-66
2023/05/29 05:26:13;;;;;;;5.88;3.42;;;;;;;;;;5050249;28;20448;-68
2023/05/29 05:28:41;;;;;;;4.80;3.40;;;;;;;;;;5050888;28;20103;-67
2023/05/29 05:31:07;;;;;;;6.22;3.28;;;;;;;;;;5050378;28;20057;-66
2023/05/29 05:33:34;;;;;;;7.50;4.65;;;;;;;;;;5051019;28;20509;-66
2023/05/29 05:36:00;;;;;;;5.18;3.53;;;;;;;;;;5051064;28;20059;-67
2023/05/29 05:38:27;;;;;;;6.93;3.90;;;;;;;;;;5050387;28;20060;-68
2023/05/29 05:40:53;;;;;;;6.28;4.07;;;;;;;;;;5050230;28;20071;-68
2023/05/29 05:43:20;;;;;;;6.25;3.65;;;;;;;;;;5050054;28;20045;-66
2023/05/29 05:45:48;;;;;;;5.05;3.28;;;;;;;;;;5051078;28;20092;-68
2023/05/29 05:48:14;;;;;;;7.82;4.18;;;;;;;;;;5050505;28;20049;-66
2023/05/29 05:50:41;;;;;;;5.30;3.22;;;;;;;;;;5050502;28;20509;-68
2023/05/29 05:53:07;;;;;;;8.93;4.05;;;;;;;;;;5050085;28;20049;-66
2023/05/29 05:55:34;;;;;;;6.05;3.90;;;;;;;;;;5050911;28;20052;-64
2023/05/29 05:58:00;;;;;;;7.07;3.55;;;;;;;;;;5050505;28;20051;-64
2023/05/29 06:00:27;;;;;;;8.48;3.92;;;;;;;;;;5050186;28;20585;-64
2023/05/29 06:02:55;;;;;;;7.53;4.00;;;;;;;;;;5050457;28;20463;-65
2023/05/29 06:05:22;;;;;;;6.97;3.80;;;;;;;;;;5050771;28;20041;-64
2023/05/29 06:07:48;;;;;;;7.45;3.90;;;;;;;;;;5050560;28;20049;-64
2023/05/29 06:10:15;;;;;;;6.85;3.70;;;;;;;;;;5050171;28;20495;-65
2023/05/29 06:12:42;;;;;;;7.90;3.90;;;;;;;;;;5051123;28;20045;-65
2023/05/29 06:15:09;;;;;;;6.43;4.05;;;;;;;;;;5050269;28;20501;-65
2023/05/29 06:17:35;;;;;;;9.38;3.90;;;;;;;;;;5050323;28;20080;-65
2023/05/29 06:20:06;;;;;;;7.13;3.60;;;;;;;;;;5049815;28;20070;-65
2023/05/29 06:22:33;;;;;;;6.10;3.40;;;;;;;;;;5050124;28;20055;-65
2023/05/29 06:24:59;;;;;;;7.45;3.95;;;;;;;;;;5049990;28;20052;-65
2023/05/29 06:27:26;;;;;;;9.32;3.72;;;;;;;;;;5049997;28;20053;-65
2023/05/29 06:29:53;;;;;;;6.22;3.67;;;;;;;;;;5049933;28;20568;-64
2023/05/29 06:32:20;;;;;;;4.30;2.92;;;;;;;;;;5050310;28;20040;-65
2023/05/29 06:34:46;;;;;;;6.60;3.28;;;;;;;;;;5049767;28;20084;-65
2023/05/29 06:37:14;;;;;;;7.28;3.50;;;;;;;;;;5049889;28;20080;-65
2023/05/29 06:39:42;;;;;;;5.65;3.53;;;;;;;;;;5049774;28;20044;-66
2023/05/29 06:42:08;;;;;;;8.02;3.75;;;;;;;;;;5050309;28;20140;-66
2023/05/29 06:44:35;;;;;;;5.97;3.40;;;;;;;;;;5050322;28;20081;-66
2023/05/29 06:47:02;;;;;;;8.27;3.72;;;;;;;;;;5049406;28;20056;-66
2023/05/29 06:49:28;;;;;;;6.20;3.40;;;;;;;;;;5049509;28;20052;-66
2023/05/29 06:51:55;;;;;;;6.07;3.15;;;;;;;;;;5049553;28;20503;-66
2023/05/29 06:54:23;;;;;;;4.82;3.03;;;;;;;;;;5049803;28;20045;-66
2023/05/29 06:56:50;;;;;;;6.30;3.60;;;;;;;;;;5049638;28;20057;-66
2023/05/29 06:59:17;;;;;;;4.93;3.53;;;;;;;;;;5050127;28;20494;-67
2023/05/29 07:01:43;;;;;;;8.40;3.72;;;;;;;;;;5049467;28;20049;-67
2023/05/29 07:04:10;;;;;;;7.65;3.65;;;;;;;;;;5050309;28;20045;-67
2023/05/29 07:06:37;;;;;;;5.20;3.20;;;;;;;;;;5049193;28;20056;-67
2023/05/29 07:09:03;;;;;;;8.90;3.42;;;;;;;;;;5049711;28;20064;-67
2023/05/29 07:11:31;;;;;;;6.32;3.17;;;;;;;;;;5048938;28;20469;-67
2023/05/29 07:13:58;;;;;;;4.55;3.10;;;;;;;;;;5053867;28;20059;-67
2023/05/29 07:16:24;;;;;;;6.32;3.22;;;;;;;;;;5053600;28;20060;-67
2023/05/29 07:18:51;;;;;;;11.60;3.53;;;;;;;;;;5053782;28;20045;-67
2023/05/29 07:21:18;;;;;;;5.75;3.30;;;;;;;;;;5053387;28;20420;-67
2023/05/29 07:23:45;;;;;;;6.05;3.15;;;;;;;;;;5053489;28;20049;-66
2023/05/29 07:26:12;;;;;;;4.68;3.03;;;;;;;;;;5053674;28;20048;-66
2023/05/29 07:28:42;;;;;;;7.05;3.33;;;;;;;;;;5053242;28;20490;-66
2023/05/29 07:31:08;;;;;;;5.30;3.35;;;;;;;;;;5053323;28;20050;-66
2023/05/29 07:33:35;;;;;;;5.95;3.20;;;;;;;;;;5052834;28;20588;-66
2023/05/29 07:36:02;;;;;;;5.63;3.10;;;;;;;;;;5052715;28;20049;-66
2023/05/29 07:38:28;;;;;;;6.72;3.10;;;;;;;;;;5052852;28;20049;-66
2023/05/29 07:40:55;;;;;;;4.57;2.58;;;;;;;;;;5053283;28;20490;-66
2023/05/29 07:43:21;;;;;;;5.85;3.28;;;;;;;;;;5052716;28;20045;-66
2023/05/29 07:45:52;;;;;;;5.65;3.40;;;;;;;;;;5053176;28;20045;-67
2023/05/29 07:48:18;;;;;;;4.82;2.65;;;;;;;;;;5053128;28;20045;-66
2023/05/29 07:50:45;;;;;;;4.43;2.88;;;;;;;;;;5052631;28;20049;-66
2023/05/29 07:53:11;;;;;;;6.30;3.60;;;;;;;;;;5053172;28;20048;-66
2023/05/29 07:55:38;;;;;;;4.40;3.00;;;;;;;;;;5052339;28;20044;-67
2023/05/29 07:58:05;;;;;;;14.75;3.42;;;;;;;;;;5052870;28;20060;-66
2023/05/29 08:00:31;;;;;;;5.82;3.42;;;;;;;;;;5051599;28;20045;-67
2023/05/29 08:02:59;;;;;;;5.03;2.90;;;;;;;;;;5052448;28;20051;-67
2023/05/29 08:05:26;;;;;;;5.90;2.72;;;;;;;;;;5052461;28;20045;-67
2023/05/29 08:07:52;;;;;;;7.70;3.08;;;;;;;;;;5052664;28;20059;-67
2023/05/29 08:10:19;;;;;;;6.55;2.85;;;;;;;;;;5051839;28;20502;-67
2023/05/29 08:12:45;;;;;;;5.18;2.70;;;;;;;;;;5052842;28;20136;-67
2023/05/29 08:15:12;;;;;;;6.97;3.13;;;;;;;;;;5052204;28;20045;-67
2023/05/29 08:17:39;;;;;;;6.57;2.85;;;;;;;;;;5052008;28;20397;-67
2023/05/29 08:20:10;;;;;;;5.53;2.78;;;;;;;;;;5051837;28;20045;-66
2023/05/29 08:22:36;;;;;;;6.25;3.17;;;;;;;;;;5052824;28;20049;-67
2023/05/29 08:25:03;;;;;;;6.10;3.00;;;;;;;;;;5051642;28;20685;-66
2023/05/29 08:27:30;;;;;;;5.78;3.10;;;;;;;;;;5052307;28;20122;-67
2023/05/29 08:29:57;;;;;;;3.80;2.97;;;;;;;;;;5052269;28;20584;-67
2023/05/29 08:32:23;;;;;;;5.85;2.83;;;;;;;;;;5051805;28;20049;-67
2023/05/29 08:34:50;;;;;;;5.75;3.00;;;;;;;;;;5052308;28;20045;-67
2023/05/29 08:37:19;;;;;;;7.05;2.75;;;;;;;;;;5051895;28;20368;-67
2023/05/29 08:39:46;;;;;;;3.58;2.65;;;;;;;;;;5051848;28;20045;-67
2023/05/29 08:42:15;;;;;;;5.93;3.10;;;;;;;;;;5051627;28;20099;-67
2023/05/29 08:44:41;;;;;;;4.32;2.78;;;;;;;;;;5052011;28;20190;-66
2023/05/29 08:47:10;;;;;;;7.95;2.92;;;;;;;;;;5051626;28;20048;-67
2023/05/29 08:49:41;;;;;;;5.57;2.88;;;;;;;;;;5051681;28;20049;-67
2023/05/29 08:52:13;;;;;;;5.75;2.97;;;;;;;;;;5051618;28;20094;-67
2023/05/29 08:54:41;;;;;;;5.18;2.95;;;;;;;;;;5052005;28;20060;-68
2023/05/29 08:57:08;;;;;;;4.93;2.78;;;;;;;;;;5051026;28;20061;-66
2023/05/29 08:59:35;;;;;;;6.90;3.22;;;;;;;;;;5051165;28;20478;-66
2023/05/29 09:02:02;;;;;;;6.75;3.22;;;;;;;;;;5051692;28;20049;-66
2023/05/29 09:04:30;;;;;;;5.43;3.03;;;;;;;;;;5051575;28;20477;-66
2023/05/29 09:06:58;;;;;;;6.55;2.45;;;;;;;;;;5051484;28;20052;-66
2023/05/29 09:11:53;;;;;;;5.25;2.95;;;;;;;;;;5009853;28;20049;-68
2023/05/29 09:14:42;;;;;;;6.28;2.58;;;;;;;;;;5010966;28;20140;-67
2023/05/29 09:17:11;;;;;;;5.25;2.72;;;;;;;;;;5006857;28;20073;-67
2023/05/29 09:19:40;;;;;;;4.47;2.70;;;;;;;;;;5010370;28;20085;-67
2023/05/29 09:22:09;;;;;;;5.38;2.65;;;;;;;;;;5011269;28;20045;-67
2023/05/29 09:24:38;;;;;;;4.03;2.60;;;;;;;;;;5010577;28;20085;-67
2023/05/29 09:27:07;;;;;;;5.13;2.75;;;;;;;;;;5011209;28;20057;-67
2023/05/29 09:29:38;;;;;;;3.50;2.58;;;;;;;;;;5010332;28;20464;-67
2023/05/29 09:32:08;;;;;;;5.38;2.45;;;;;;;;;;5011798;28;20057;-67
2023/05/29 09:34:35;;;;;;;5.60;2.50;;;;;;;;;;5010624;28;20096;-67
2023/05/29 09:37:08;;;;;;;5.03;2.55;;;;;;;;;;5010041;28;20049;-67
2023/05/29 09:39:36;;;;;;;3.92;2.75;;;;;;;;;;5010417;28;20080;-67
2023/05/29 09:42:02;;;;;;;5.47;2.80;;;;;;;;;;5011852;28;20120;-67
2023/05/29 09:44:31;;;;;;;3.78;2.50;;;;;;;;;;5011056;28;20046;-68
2023/05/29 09:46:59;;;;;;;5.30;2.90;;;;;;;;;;5010793;28;20046;-67
2023/05/29 09:49:27;;;;;;;5.20;3.10;;;;;;;;;;5010004;28;20079;-67
2023/05/29 09:51:54;;;;;;;5.85;3.00;;;;;;;;;;5010579;28;20046;-67
2023/05/29 09:54:21;;;;;;;6.15;3.08;;;;;;;;;;5010565;28;20046;-67
2023/05/29 09:56:48;;;;;;;5.38;2.92;;;;;;;;;;5010701;28;20069;-67
2023/05/29 09:59:18;;;;;;;3.78;2.70;;;;;;;;;;5010560;28;20065;-67
2023/05/29 10:01:45;;;;;;;6.15;2.60;;;;;;;;;;5010069;28;20546;-67
2023/05/29 10:04:13;;;;;;;6.82;2.80;;;;;;;;;;5010377;28;20415;-67
2023/05/29 10:06:46;;;;;;;4.53;2.72;;;;;;;;;;5009826;28;20050;-67
2023/05/29 10:09:19;;;;;;;6.75;2.85;;;;;;;;;;5010658;28;20592;-67
2023/05/29 10:11:49;;;;;;;4.40;2.47;;;;;;;;;;5009829;28;20085;-67
2023/05/29 10:14:19;;;;;;;5.95;2.63;;;;;;;;;;5010273;28;20042;-67
2023/05/29 10:16:50;;;;;;;4.75;2.70;;;;;;;;;;5010100;28;20080;-67
2023/05/29 10:19:22;;;;;;;4.53;2.63;;;;;;;;;;5010740;28;20057;-68
2023/05/29 10:21:50;;;;;;;4.47;2.92;;;;;;;;;;5009539;28;20060;-67
2023/05/29 10:24:18;;;;;;;4.78;2.83;;;;;;;;;;5010310;28;20046;-67
2023/05/29 10:26:49;;;;;;;7.07;3.03;;;;;;;;;;5009585;28;20050;-67
2023/05/29 10:29:25;;;;;;;5.53;2.85;;;;;;;;;;5010394;28;20053;-67
2023/05/29 10:32:05;;;;;;;6.65;3.08;;;;;;;;;;5009576;28;20053;-67
2023/05/29 10:34:40;;;;;;;4.68;2.42;;;;;;;;;;5010398;28;20133;-67
2023/05/29 10:37:19;;;;;;;4.63;2.67;;;;;;;;;;5009615;28;20061;-67
2023/05/29 10:39:48;;;;;;;4.15;2.65;;;;;;;;;;5010403;28;20042;-67
2023/05/29 10:42:45;;;;;;;4.78;2.40;;;;;;;;;;5010175;28;20045;-67
2023/05/29 10:45:32;;;;;;;5.03;2.85;;;;;;;;;;5010418;28;20053;-67
2023/05/29 10:48:38;;;;;;;6.78;2.60;;;;;;;;;;5011694;28;20056;-67
2023/05/29 10:51:07;;;;;;;6.90;2.83;;;;;;;;;;5013690;28;20061;-67
2023/05/29 10:53:34;;;;;;;5.53;3.13;;;;;;;;;;5013990;28;20484;-67
2023/05/29 10:56:02;;;;;;;3.33;2.47;;;;;;;;;;5014126;28;20042;-67
2023/05/29 10:58:31;;;;;;;4.93;2.80;;;;;;;;;;5013350;28;20108;-67
2023/05/29 11:00:58;;;;;;;4.28;2.50;;;;;;;;;;5013401;28;20054;-67
2023/05/29 11:03:31;;;;;;;4.60;2.83;;;;;;;;;;5013500;28;20053;-68
2023/05/29 11:05:58;;;;;;;4.55;2.60;;;;;;;;;;5013613;28;20061;-68
2023/05/29 11:08:31;;;;;;;7.20;2.90;;;;;;;;;;5013096;28;20042;-68
2023/05/29 11:10:58;;;;;;;3.42;2.85;;;;;;;;;;5013144;28;20475;-68
2023/05/29 11:13:26;;;;;;;5.35;2.80;;;;;;;;;;5013336;28;20572;-67
2023/05/29 11:16:19;;;;;;;3.03;2.22;;;;;;;;;;5013602;28;20487;-67
2023/05/29 11:18:49;;;;;;;7.15;2.78;;;;;;;;;;5013001;28;20407;-67
2023/05/29 11:21:31;;;;;;;4.78;2.70;;;;;;;;;;5013050;28;20100;-67
2023/05/29 11:23:59;;;;;;;7.65;2.65;;;;;;;;;;5012934;28;20469;-67
2023/05/29 11:26:27;;;;;;;4.25;3.00;;;;;;;;;;5013302;28;20049;-67
2023/05/29 11:28:54;;;;;;;4.57;2.53;;;;;;;;;;5013082;28;20052;-67
2023/05/29 11:31:22;;;;;;;4.72;2.40;;;;;;;;;;5012355;28;20052;-67
2023/05/29 11:33:51;;;;;;;4.90;2.60;;;;;;;;;;5013343;28;20137;-68
2023/05/29 11:36:19;;;;;;;4.97;2.72;;;;;;;;;;5012722;28;20427;-67
2023/05/29 11:38:46;;;;;;;5.28;3.00;;;;;;;;;;5013140;28;20130;-67
2023/05/29 11:41:13;;;;;;;4.53;2.60;;;;;;;;;;5012389;28;20046;-68
2023/05/29 11:43:39;;;;;;;4.05;2.53;;;;;;;;;;5012992;28;20056;-67
2023/05/29 11:46:17;;;;;;;6.78;2.90;;;;;;;;;;5012507;28;20049;-67
2023/05/29 11:48:46;;;;;;;4.90;2.85;;;;;;;;;;5013463;28;20053;-67
2023/05/29 11:51:15;;;;;;;9.32;3.35;;;;;;;;;;5012355;28;20096;-67
2023/05/29 11:53:42;;;;;;;5.22;3.22;;;;;;;;;;5012656;28;20049;-67
2023/05/29 11:56:10;;;;;;;4.90;2.40;;;;;;;;;;5012488;28;20054;-67
2023/05/29 11:58:37;;;;;;;5.15;2.63;;;;;;;;;;5011502;28;20046;-67
2023/05/29 12:01:03;;;;;;;4.03;2.72;;;;;;;;;;5012146;28;20049;-67
2023/05/29 12:03:30;;;;;;;4.38;2.88;;;;;;;;;;5012777;28;20046;-68
2023/05/29 12:05:56;;;;;;;5.72;2.70;;;;;;;;;;5012038;28;20046;-68
2023/05/29 12:08:25;;;;;;;4.78;2.55;;;;;;;;;;5012806;28;20046;-68
2023/05/29 12:10:53;;;;;;;5.13;2.65;;;;;;;;;;5011994;28;20100;-68
2023/05/29 12:13:20;;;;;;;7.45;2.83;;;;;;;;;;5012255;28;20045;-67
2023/05/29 12:15:48;;;;;;;8.07;2.90;;;;;;;;;;5012539;28;20132;-67
2023/05/29 12:18:15;;;;;;;4.20;2.40;;;;;;;;;;5012297;28;20056;-68
2023/05/29 12:20:42;;;;;;;6.90;2.63;;;;;;;;;;5012020;28;20053;-68
2023/05/29 12:23:09;;;;;;;3.90;2.70;;;;;;;;;;5012395;28;20061;-68
2023/05/29 12:25:37;;;;;;;6.57;2.97;;;;;;;;;;5012088;28;20050;-68
2023/05/29 12:28:05;;;;;;;4.68;2.83;;;;;;;;;;5012029;28;20057;-67
2023/05/29 12:30:37;;;;;;;7.45;2.45;;;;;;;;;;5011982;28;20078;-67
2023/05/29 12:33:06;;;;;;;4.30;2.50;;;;;;;;;;5011912;28;20046;-67
2023/05/29 12:35:32;;;;;;;5.93;2.88;;;;;;;;;;5012522;28;20053;-66
2023/05/29 12:38:01;;;;;;;4.05;2.75;;;;;;;;;;5012327;28;20522;-67
2023/05/29 12:40:29;;;;;;;10.27;3.08;;;;;;;;;;5012530;28;20100;-66
2023/05/29 12:42:58;;;;;;;5.78;2.65;;;;;;;;;;5012311;28;20042;-66
2023/05/29 12:45:26;;;;;;;6.15;2.97;;;;;;;;;;5012456;28;20050;-67
2023/05/29 12:47:55;;;;;;;3.20;2.53;;;;;;;;;;5012160;28;20508;-68
2023/05/29 12:50:26;;;;;;;4.05;2.90;;;;;;;;;;5011989;28;20046;-67
2023/05/29 12:52:57;;;;;;;5.57;2.78;;;;;;;;;;5012442;28;20558;-68
2023/05/29 12:55:24;;;;;;;4.43;2.50;;;;;;;;;;5013210;28;20423;-67
2023/05/29 12:57:51;;;;;;;7.53;2.63;;;;;;;;;;5012505;28;20053;-67
2023/05/29 13:00:20;;;;;;;4.68;2.78;;;;;;;;;;5011297;28;20045;-66
2023/05/29 13:02:47;;;;;;;3.08;2.35;;;;;;;;;;5011976;28;20108;-67
2023/05/29 13:05:15;;;;;;;4.43;2.63;;;;;;;;;;5011140;28;20046;-67
2023/05/29 13:07:42;;;;;;;3.08;2.58;;;;;;;;;;5011566;28;20149;-67
2023/05/29 13:10:10;;;;;;;3.50;2.97;;;;;;;;;;5010984;28;20046;-67
2023/05/29 13:12:36;;;;;;;4.45;2.45;;;;;;;;;;5012028;28;20050;-67
2023/05/29 13:15:03;;;;;;;4.70;2.92;;;;;;;;;;5011594;28;20443;-67
2023/05/29 13:17:31;;;;;;;5.40;2.33;;;;;;;;;;5011649;28;20072;-66
2023/05/29 13:19:58;;;;;;;5.40;2.50;;;;;;;;;;5010979;28;20049;-69
2023/05/29 13:22:30;;;;;;;5.00;2.67;;;;;;;;;;5011820;28;20121;-67
2023/05/29 13:24:57;;;;;;;3.67;2.50;;;;;;;;;;5011225;28;20050;-67
2023/05/29 13:27:23;;;;;;;2.92;2.17;;;;;;;;;;5011704;28;20411;-67
2023/05/29 13:29:50;;;;;;;3.90;2.47;;;;;;;;;;5011078;28;20088;-67
2023/05/29 13:32:17;;;;;;;3.88;2.60;;;;;;;;;;5011042;28;20476;-68
2023/05/29 13:34:45;;;;;;;3.72;2.70;;;;;;;;;;5011662;28;20050;-68
2023/05/29 13:37:12;;;;;;;3.17;2.40;;;;;;;;;;5011045;28;20077;-67
2023/05/29 13:39:39;;;;;;;3.17;2.30;;;;;;;;;;5011438;28;20050;-67
2023/05/29 13:42:07;;;;;;;3.38;2.20;;;;;;;;;;5010972;28;20057;-68
2023/05/29 13:44:34;;;;;;;3.25;2.55;;;;;;;;;;5011538;28;20050;-68
2023/05/29 13:47:00;;;;;;;4.05;2.10;;;;;;;;;;5010705;28;20062;-68
2023/05/29 13:49:27;;;;;;;3.28;2.22;;;;;;;;;;5011311;28;20049;-67
2023/05/29 13:51:55;;;;;;;3.35;2.47;;;;;;;;;;5010878;28;20487;-67
2023/05/29 13:54:22;;;;;;;3.40;2.63;;;;;;;;;;5010815;28;20041;-67
2023/05/29 13:56:49;;;;;;;3.70;2.30;;;;;;;;;;5010537;28;20479;-67
2023/05/29 13:59:15;;;;;;;2.80;2.13;;;;;;;;;;5010556;28;20053;-67
2023/05/29 14:01:42;;;;;;;2.92;2.60;;;;;;;;;;5010210;28;20072;-67
2023/05/29 14:04:09;;;;;;;3.50;2.30;;;;;;;;;;5011097;28;20069;-67
2023/05/29 14:06:36;;;;;;;2.55;2.33;;;;;;;;;;5010583;28;20050;-67
2023/05/29 14:09:04;;;;;;;4.50;2.53;;;;;;;;;;5010419;28;20253;-67
2023/05/29 14:11:35;;;;;;;5.65;2.88;;;;;;;;;;5010262;28;20107;-66
2023/05/29 14:14:01;;;;;;;4.35;2.53;;;;;;;;;;5009956;28;20100;-67
2023/05/29 14:16:28;;;;;;;6.10;2.60;;;;;;;;;;5010845;28;20121;-67
2023/05/29 14:18:54;;;;;;;3.83;2.67;;;;;;;;;;5010015;28;20056;-67
2023/05/29 14:21:21;;;;;;;4.13;2.20;;;;;;;;;;5009916;28;20411;-68
2023/05/29 14:23:48;;;;;;;4.03;2.30;;;;;;;;;;5010164;28;20065;-67
2023/05/29 14:26:15;;;;;;;4.43;2.60;;;;;;;;;;5010308;28;20049;-67
2023/05/29 14:28:42;;;;;;;3.38;2.20;;;;;;;;;;5010346;28;20061;-68
2023/05/29 14:31:09;;;;;;;3.30;2.28;;;;;;;;;;5010033;28;20050;-68
2023/05/29 14:33:36;;;;;;;3.85;2.20;;;;;;;;;;5009921;28;20048;-68
2023/05/29 14:36:03;;;;;;;5.63;2.50;;;;;;;;;;5010297;28;20073;-67
2023/05/29 14:38:30;;;;;;;2.75;2.30;;;;;;;;;;5010453;28;20068;-67
2023/05/29 14:40:56;;;;;;;4.40;2.35;;;;;;;;;;5009600;28;20077;-67
2023/05/29 14:43:25;;;;;;;8.43;2.70;;;;;;;;;;5010414;28;20064;-66
2023/05/29 14:45:51;;;;;;;3.33;2.42;;;;;;;;;;5009768;28;20053;-68
2023/05/29 14:48:18;;;;;;;3.90;2.60;;;;;;;;;;5010372;28;20144;-68
2023/05/29 14:50:44;;;;;;;3.95;2.67;;;;;;;;;;5009798;28;20046;-68